sensor_id;sensor_type;location;lat;lon;timestamp;temperature;humidity
18882;DHT22;9573;50.948;11.600;2023-03-08T00:02:18;3.00;99.90
18882;DHT22;9573;50.948;11.600;2023-03-08T00:04:45;3.10;99.90
18882;DHT22;9573;50.948;11.600;2023-03-08T00:07:12;3.10;99.90
18882;DHT22;9573;50.948;11.600;2023-03-08T00:09:39;3.00;99.90
18882;DHT22;9573;50.948;11.600;2023-03-08T00:12:06;3.00;99.90
18882;DHT22;9573;50.948;11.600;2023-03-08T00:14:35;3.00;99.90
18882;DHT22;9573;50.948;11.600;2023-03-08T00:17:02;3.00;99.90
18882;DHT22;9573;50.948;11.600;2023-03-08T00:19:31;3.00;99.90
18882;DHT22;9573;50.948;11.600;2023-03-08T00:21:58;3.00;99.90
18882;DHT22;9573;50.948;11.600;2023-03-08T00:24:25;3.10;99.90
18882;DHT22;9573;50.948;11.600;2023-03-08T00:26:53;3.20;99.90
18882;DHT22;9573;50.948;11.600;2023-03-08T00:29:20;3.20;99.90
18882;DHT22;9573;50.948;11.600;2023-03-08T00:31:47;3.20;99.90
18882;DHT22;9573;50.948;11.600;2023-03-08T00:34:14;3.20;99.90
18882;DHT22;9573;50.948;11.600;2023-03-08T00:36:43;3.20;99.90
18882;DHT22;9573;50.948;11.600;2023-03-08T00:39:11;3.20;99.90
18882;DHT22;9573;50.948;11.600;2023-03-08T00:41:39;3.20;99.90
18882;DHT22;9573;50.948;11.600;2023-03-08T00:44:06;3.20;99.90
18882;DHT22;9573;50.948;11.600;2023-03-08T00:46:34;3.20;99.90
18882;DHT22;9573;50.948;11.600;2023-03-08T00:49:01;3.20;99.90
18882;DHT22;9573;50.948;11.600;2023-03-08T00:51:29;3.20;99.90
18882;DHT22;9573;50.948;11.600;2023-03-08T00:53:57;3.20;99.90
18882;DHT22;9573;50.948;11.600;2023-03-08T00:56:24;3.20;99.90
18882;DHT22;9573;50.948;11.600;2023-03-08T00:58:52;3.20;99.90
18882;DHT22;9573;50.948;11.600;2023-03-08T01:01:19;3.30;99.90
18882;DHT22;9573;50.948;11.600;2023-03-08T01:03:46;3.30;99.90
18882;DHT22;9573;50.948;11.600;2023-03-08T01:06:13;3.30;99.90
18882;DHT22;9573;50.948;11.600;2023-03-08T01:08:41;3.30;99.90
18882;DHT22;9573;50.948;11.600;2023-03-08T01:11:16;3.30;99.90
18882;DHT22;9573;50.948;11.600;2023-03-08T01:13:44;3.30;99.90
18882;DHT22;9573;50.948;11.600;2023-03-08T01:16:16;3.30;99.90
18882;DHT22;9573;50.948;11.600;2023-03-08T01:18:44;3.30;99.90
18882;DHT22;9573;50.948;11.600;2023-03-08T01:21:12;3.20;99.90
18882;DHT22;9573;50.948;11.600;2023-03-08T01:23:39;3.20;99.90
18882;DHT22;9573;50.948;11.600;2023-03-08T01:26:07;3.30;99.90
18882;DHT22;9573;50.948;11.600;2023-03-08T01:28:38;3.20;99.90
18882;DHT22;9573;50.948;11.600;2023-03-08T01:31:07;3.30;99.90
18882;DHT22;9573;50.948;11.600;2023-03-08T01:33:36;3.20;99.90
18882;DHT22;9573;50.948;11.600;2023-03-08T01:36:05;3.30;99.90
18882;DHT22;9573;50.948;11.600;2023-03-08T01:38:33;3.30;99.90
18882;DHT22;9573;50.948;11.600;2023-03-08T01:41:04;3.20;99.90
18882;DHT22;9573;50.948;11.600;2023-03-08T01:43:33;3.20;99.90
18882;DHT22;9573;50.948;11.600;2023-03-08T01:46:25;3.20;99.90
18882;DHT22;9573;50.948;11.600;2023-03-08T01:48:58;3.20;99.90
18882;DHT22;9573;50.948;11.600;2023-03-08T01:51:31;3.20;99.90
18882;DHT22;9573;50.948;11.600;2023-03-08T01:54:04;3.20;99.90
18882;DHT22;9573;50.948;11.600;2023-03-08T01:56:34;3.60;99.90
18882;DHT22;9573;50.948;11.600;2023-03-08T01:59:02;3.30;99.90
18882;DHT22;9573;50.948;11.600;2023-03-08T02:01:32;3.30;99.90
18882;DHT22;9573;50.948;11.600;2023-03-08T02:04:00;3.30;99.90
18882;DHT22;9573;50.948;11.600;2023-03-08T02:06:28;3.30;99.90
18882;DHT22;9573;50.948;11.600;2023-03-08T02:08:55;3.30;99.90
18882;DHT22;9573;50.948;11.600;2023-03-08T02:11:23;3.30;99.90
18882;DHT22;9573;50.948;11.600;2023-03-08T02:13:51;3.30;99.90
18882;DHT22;9573;50.948;11.600;2023-03-08T02:16:20;3.20;99.90
18882;DHT22;9573;50.948;11.600;2023-03-08T02:18:51;3.20;99.90
18882;DHT22;9573;50.948;11.600;2023-03-08T02:21:19;3.10;99.90
18882;DHT22;9573;50.948;11.600;2023-03-08T02:23:48;3.10;99.90
18882;DHT22;9573;50.948;11.600;2023-03-08T02:26:15;3.00;99.90
18882;DHT22;9573;50.948;11.600;2023-03-08T02:28:43;3.10;99.90
18882;DHT22;9573;50.948;11.600;2023-03-08T02:31:10;3.00;99.90
18882;DHT22;9573;50.948;11.600;2023-03-08T02:33:38;3.00;99.90
18882;DHT22;9573;50.948;11.600;2023-03-08T02:36:07;3.90;99.90
18882;DHT22;9573;50.948;11.600;2023-03-08T02:38:35;3.00;99.90
18882;DHT22;9573;50.948;11.600;2023-03-08T02:41:04;3.00;99.90
18882;DHT22;9573;50.948;11.600;2023-03-08T02:43:32;3.00;99.90
18882;DHT22;9573;50.948;11.600;2023-03-08T02:45:59;3.00;99.90
18882;DHT22;9573;50.948;11.600;2023-03-08T02:48:26;3.00;99.90
18882;DHT22;9573;50.948;11.600;2023-03-08T02:50:53;3.00;99.90
18882;DHT22;9573;50.948;11.600;2023-03-08T02:53:20;3.10;99.90
18882;DHT22;9573;50.948;11.600;2023-03-08T02:55:47;3.00;99.90
18882;DHT22;9573;50.948;11.600;2023-03-08T02:58:16;3.00;99.90
18882;DHT22;9573;50.948;11.600;2023-03-08T03:00:43;3.00;99.90
18882;DHT22;9573;50.948;11.600;2023-03-08T03:03:10;3.00;99.90
18882;DHT22;9573;50.948;11.600;2023-03-08T03:05:40;3.00;99.90
18882;DHT22;9573;50.948;11.600;2023-03-08T03:08:08;3.00;99.90
18882;DHT22;9573;50.948;11.600;2023-03-08T03:10:36;3.00;99.90
18882;DHT22;9573;50.948;11.600;2023-03-08T03:13:04;3.00;99.90
18882;DHT22;9573;50.948;11.600;2023-03-08T03:15:33;3.00;99.90
18882;DHT22;9573;50.948;11.600;2023-03-08T03:18:03;3.00;99.90
18882;DHT22;9573;50.948;11.600;2023-03-08T03:20:31;3.00;99.90
18882;DHT22;9573;50.948;11.600;2023-03-08T03:22:58;2.90;99.90
18882;DHT22;9573;50.948;11.600;2023-03-08T03:25:25;2.90;99.90
18882;DHT22;9573;50.948;11.600;2023-03-08T03:27:53;2.90;99.90
18882;DHT22;9573;50.948;11.600;2023-03-08T03:30:20;2.90;99.90
18882;DHT22;9573;50.948;11.600;2023-03-08T03:32:49;2.90;99.90
18882;DHT22;9573;50.948;11.600;2023-03-08T03:35:16;2.90;99.90
18882;DHT22;9573;50.948;11.600;2023-03-08T03:37:43;2.90;99.90
18882;DHT22;9573;50.948;11.600;2023-03-08T03:40:12;2.90;99.90
18882;DHT22;9573;50.948;11.600;2023-03-08T03:42:39;2.90;99.90
18882;DHT22;9573;50.948;11.600;2023-03-08T03:45:07;2.80;99.90
18882;DHT22;9573;50.948;11.600;2023-03-08T03:47:35;2.80;99.90
18882;DHT22;9573;50.948;11.600;2023-03-08T03:50:04;2.80;99.90
18882;DHT22;9573;50.948;11.600;2023-03-08T03:52:31;2.80;99.90
18882;DHT22;9573;50.948;11.600;2023-03-08T03:54:58;2.80;99.90
18882;DHT22;9573;50.948;11.600;2023-03-08T03:57:25;2.80;99.90
18882;DHT22;9573;50.948;11.600;2023-03-08T03:59:53;2.80;99.90
18882;DHT22;9573;50.948;11.600;2023-03-08T04:02:20;2.90;99.90
18882;DHT22;9573;50.948;11.600;2023-03-08T04:04:48;2.90;99.90
18882;DHT22;9573;50.948;11.600;2023-03-08T04:07:17;2.90;99.90
18882;DHT22;9573;50.948;11.600;2023-03-08T04:09:44;2.90;99.90
18882;DHT22;9573;50.948;11.600;2023-03-08T04:12:12;2.80;99.90
18882;DHT22;9573;50.948;11.600;2023-03-08T04:14:39;2.90;99.90
18882;DHT22;9573;50.948;11.600;2023-03-08T04:17:07;2.90;99.90
18882;DHT22;9573;50.948;11.600;2023-03-08T04:19:34;2.90;99.90
18882;DHT22;9573;50.948;11.600;2023-03-08T04:22:01;2.90;99.90
18882;DHT22;9573;50.948;11.600;2023-03-08T04:24:30;2.90;99.90
18882;DHT22;9573;50.948;11.600;2023-03-08T04:26:57;2.90;99.90
18882;DHT22;9573;50.948;11.600;2023-03-08T04:29:24;2.90;99.90
18882;DHT22;9573;50.948;11.600;2023-03-08T04:31:51;2.90;99.90
18882;DHT22;9573;50.948;11.600;2023-03-08T04:34:22;2.90;99.90
18882;DHT22;9573;50.948;11.600;2023-03-08T04:36:49;2.90;99.90
18882;DHT22;9573;50.948;11.600;2023-03-08T04:39:16;2.90;99.90
18882;DHT22;9573;50.948;11.600;2023-03-08T04:41:45;2.90;99.90
18882;DHT22;9573;50.948;11.600;2023-03-08T04:44:12;3.00;99.90
18882;DHT22;9573;50.948;11.600;2023-03-08T04:46:39;3.00;99.90
18882;DHT22;9573;50.948;11.600;2023-03-08T04:49:06;3.00;99.90
18882;DHT22;9573;50.948;11.600;2023-03-08T04:51:33;3.00;99.90
18882;DHT22;9573;50.948;11.600;2023-03-08T04:54:00;3.00;99.90
18882;DHT22;9573;50.948;11.600;2023-03-08T04:56:28;3.00;99.90
18882;DHT22;9573;50.948;11.600;2023-03-08T04:58:57;3.00;99.90
18882;DHT22;9573;50.948;11.600;2023-03-08T05:01:24;2.90;99.90
18882;DHT22;9573;50.948;11.600;2023-03-08T05:03:52;2.90;99.90
18882;DHT22;9573;50.948;11.600;2023-03-08T05:06:21;2.90;99.90
18882;DHT22;9573;50.948;11.600;2023-03-08T05:08:49;2.90;99.90
18882;DHT22;9573;50.948;11.600;2023-03-08T05:11:19;2.90;99.90
18882;DHT22;9573;50.948;11.600;2023-03-08T05:13:47;2.90;99.90
18882;DHT22;9573;50.948;11.600;2023-03-08T05:16:15;2.90;99.90
18882;DHT22;9573;50.948;11.600;2023-03-08T05:18:43;2.80;99.90
18882;DHT22;9573;50.948;11.600;2023-03-08T05:21:11;2.80;99.90
18882;DHT22;9573;50.948;11.600;2023-03-08T05:23:40;2.80;99.90
18882;DHT22;9573;50.948;11.600;2023-03-08T05:26:09;2.80;99.90
18882;DHT22;9573;50.948;11.600;2023-03-08T05:28:37;2.80;99.90
18882;DHT22;9573;50.948;11.600;2023-03-08T05:31:08;2.80;99.90
18882;DHT22;9573;50.948;11.600;2023-03-08T05:33:38;2.80;99.90
18882;DHT22;9573;50.948;11.600;2023-03-08T05:36:06;2.80;99.90
18882;DHT22;9573;50.948;11.600;2023-03-08T05:38:34;2.80;99.90
18882;DHT22;9573;50.948;11.600;2023-03-08T05:41:02;2.80;99.90
18882;DHT22;9573;50.948;11.600;2023-03-08T05:43:30;2.80;99.90
18882;DHT22;9573;50.948;11.600;2023-03-08T05:45:59;2.70;99.90
18882;DHT22;9573;50.948;11.600;2023-03-08T05:48:27;2.70;99.90
18882;DHT22;9573;50.948;11.600;2023-03-08T05:50:55;2.70;99.90
18882;DHT22;9573;50.948;11.600;2023-03-08T05:53:23;2.70;99.90
18882;DHT22;9573;50.948;11.600;2023-03-08T05:55:51;2.70;99.90
18882;DHT22;9573;50.948;11.600;2023-03-08T05:58:19;2.70;99.90
18882;DHT22;9573;50.948;11.600;2023-03-08T06:00:47;2.60;99.90
18882;DHT22;9573;50.948;11.600;2023-03-08T06:03:14;2.70;99.90
18882;DHT22;9573;50.948;11.600;2023-03-08T06:05:41;2.60;99.90
18882;DHT22;9573;50.948;11.600;2023-03-08T06:08:09;2.70;99.90
18882;DHT22;9573;50.948;11.600;2023-03-08T06:10:36;2.70;99.90
18882;DHT22;9573;50.948;11.600;2023-03-08T06:13:03;2.80;99.90
18882;DHT22;9573;50.948;11.600;2023-03-08T06:15:30;2.80;99.90
18882;DHT22;9573;50.948;11.600;2023-03-08T06:17:57;2.80;99.90
18882;DHT22;9573;50.948;11.600;2023-03-08T06:20:24;2.90;99.90
18882;DHT22;9573;50.948;11.600;2023-03-08T06:22:52;2.90;99.90
18882;DHT22;9573;50.948;11.600;2023-03-08T06:25:20;3.00;99.90
18882;DHT22;9573;50.948;11.600;2023-03-08T06:27:47;3.00;99.90
18882;DHT22;9573;50.948;11.600;2023-03-08T06:30:15;3.10;99.90
18882;DHT22;9573;50.948;11.600;2023-03-08T06:32:42;3.10;99.90
18882;DHT22;9573;50.948;11.600;2023-03-08T06:35:09;3.20;99.90
18882;DHT22;9573;50.948;11.600;2023-03-08T06:37:37;3.30;99.90
18882;DHT22;9573;50.948;11.600;2023-03-08T06:40:04;3.30;99.90
18882;DHT22;9573;50.948;11.600;2023-03-08T06:42:35;3.40;99.90
18882;DHT22;9573;50.948;11.600;2023-03-08T06:45:02;3.40;99.90
18882;DHT22;9573;50.948;11.600;2023-03-08T06:47:30;3.40;99.90
18882;DHT22;9573;50.948;11.600;2023-03-08T06:49:57;3.40;99.90
18882;DHT22;9573;50.948;11.600;2023-03-08T06:52:24;3.40;99.90
18882;DHT22;9573;50.948;11.600;2023-03-08T06:54:51;3.50;99.90
18882;DHT22;9573;50.948;11.600;2023-03-08T06:57:18;3.50;99.90
18882;DHT22;9573;50.948;11.600;2023-03-08T06:59:46;3.50;99.90
18882;DHT22;9573;50.948;11.600;2023-03-08T07:02:13;3.50;99.90
18882;DHT22;9573;50.948;11.600;2023-03-08T07:04:40;3.60;99.90
18882;DHT22;9573;50.948;11.600;2023-03-08T07:07:07;3.60;99.90
18882;DHT22;9573;50.948;11.600;2023-03-08T07:09:35;3.70;99.90
18882;DHT22;9573;50.948;11.600;2023-03-08T07:12:02;3.70;99.90
18882;DHT22;9573;50.948;11.600;2023-03-08T07:14:30;3.80;99.90
18882;DHT22;9573;50.948;11.600;2023-03-08T07:16:58;3.80;99.90
18882;DHT22;9573;50.948;11.600;2023-03-08T07:19:25;3.80;99.90
18882;DHT22;9573;50.948;11.600;2023-03-08T07:21:53;3.90;99.90
18882;DHT22;9573;50.948;11.600;2023-03-08T07:24:20;4.00;99.90
18882;DHT22;9573;50.948;11.600;2023-03-08T07:26:48;4.10;99.90
18882;DHT22;9573;50.948;11.600;2023-03-08T07:29:16;4.20;99.90
18882;DHT22;9573;50.948;11.600;2023-03-08T07:31:43;4.20;99.90
18882;DHT22;9573;50.948;11.600;2023-03-08T07:34:11;4.00;99.90
18882;DHT22;9573;50.948;11.600;2023-03-08T07:36:39;4.50;99.90
18882;DHT22;9573;50.948;11.600;2023-03-08T07:39:06;4.50;99.90
18882;DHT22;9573;50.948;11.600;2023-03-08T07:41:33;4.60;99.90
18882;DHT22;9573;50.948;11.600;2023-03-08T07:44:01;4.60;99.90
18882;DHT22;9573;50.948;11.600;2023-03-08T07:46:28;4.60;99.90
18882;DHT22;9573;50.948;11.600;2023-03-08T07:48:55;4.70;99.90
18882;DHT22;9573;50.948;11.600;2023-03-08T07:51:23;4.80;99.90
18882;DHT22;9573;50.948;11.600;2023-03-08T07:53:51;4.80;99.90
18882;DHT22;9573;50.948;11.600;2023-03-08T07:56:18;4.70;99.90
18882;DHT22;9573;50.948;11.600;2023-03-08T07:58:45;4.60;99.90
18882;DHT22;9573;50.948;11.600;2023-03-08T08:01:13;4.50;99.90
18882;DHT22;9573;50.948;11.600;2023-03-08T08:03:41;4.40;99.90
18882;DHT22;9573;50.948;11.600;2023-03-08T08:06:10;4.40;99.90
18882;DHT22;9573;50.948;11.600;2023-03-08T08:08:39;4.40;99.90
18882;DHT22;9573;50.948;11.600;2023-03-08T08:11:10;4.50;99.90
18882;DHT22;9573;50.948;11.600;2023-03-08T08:13:38;4.50;99.90
18882;DHT22;9573;50.948;11.600;2023-03-08T08:16:05;4.60;99.90
18882;DHT22;9573;50.948;11.600;2023-03-08T08:18:33;4.60;99.90
18882;DHT22;9573;50.948;11.600;2023-03-08T08:21:04;4.50;99.90
18882;DHT22;9573;50.948;11.600;2023-03-08T08:23:33;4.50;99.90
18882;DHT22;9573;50.948;11.600;2023-03-08T08:26:03;4.60;99.90
18882;DHT22;9573;50.948;11.600;2023-03-08T08:28:31;4.80;99.90
18882;DHT22;9573;50.948;11.600;2023-03-08T08:31:00;4.90;99.90
18882;DHT22;9573;50.948;11.600;2023-03-08T08:33:29;4.90;99.90
18882;DHT22;9573;50.948;11.600;2023-03-08T08:35:57;5.00;99.90
18882;DHT22;9573;50.948;11.600;2023-03-08T08:38:25;5.00;99.90
18882;DHT22;9573;50.948;11.600;2023-03-08T08:40:52;5.10;99.90
18882;DHT22;9573;50.948;11.600;2023-03-08T08:43:21;5.10;99.90
18882;DHT22;9573;50.948;11.600;2023-03-08T08:45:52;5.10;99.90
18882;DHT22;9573;50.948;11.600;2023-03-08T08:48:21;5.00;99.90
18882;DHT22;9573;50.948;11.600;2023-03-08T08:50:49;5.00;99.90
18882;DHT22;9573;50.948;11.600;2023-03-08T08:53:16;4.90;99.90
18882;DHT22;9573;50.948;11.600;2023-03-08T08:55:43;4.90;99.90
18882;DHT22;9573;50.948;11.600;2023-03-08T08:58:11;4.80;99.90
18882;DHT22;9573;50.948;11.600;2023-03-08T09:00:40;4.70;99.90
18882;DHT22;9573;50.948;11.600;2023-03-08T09:03:07;4.60;99.90
18882;DHT22;9573;50.948;11.600;2023-03-08T09:05:38;4.50;99.90
18882;DHT22;9573;50.948;11.600;2023-03-08T09:08:06;4.50;99.90
18882;DHT22;9573;50.948;11.600;2023-03-08T09:10:35;4.50;99.90
18882;DHT22;9573;50.948;11.600;2023-03-08T09:13:03;4.60;99.90
18882;DHT22;9573;50.948;11.600;2023-03-08T09:15:31;4.60;99.90
18882;DHT22;9573;50.948;11.600;2023-03-08T09:18:01;4.50;99.90
18882;DHT22;9573;50.948;11.600;2023-03-08T09:20:28;4.50;99.90
18882;DHT22;9573;50.948;11.600;2023-03-08T09:22:55;4.40;99.90
18882;DHT22;9573;50.948;11.600;2023-03-08T09:25:22;4.40;99.90
18882;DHT22;9573;50.948;11.600;2023-03-08T09:27:50;4.40;99.90
18882;DHT22;9573;50.948;11.600;2023-03-08T09:30:17;4.30;99.90
18882;DHT22;9573;50.948;11.600;2023-03-08T09:32:44;4.30;99.90
18882;DHT22;9573;50.948;11.600;2023-03-08T09:35:13;4.40;99.90
18882;DHT22;9573;50.948;11.600;2023-03-08T09:37:40;4.30;99.90
18882;DHT22;9573;50.948;11.600;2023-03-08T09:40:19;4.40;99.90
18882;DHT22;9573;50.948;11.600;2023-03-08T09:42:48;4.50;99.90
18882;DHT22;9573;50.948;11.600;2023-03-08T09:45:20;4.60;99.90
18882;DHT22;9573;50.948;11.600;2023-03-08T09:47:54;4.70;99.90
18882;DHT22;9573;50.948;11.600;2023-03-08T09:50:42;4.60;99.90
18882;DHT22;9573;50.948;11.600;2023-03-08T09:53:17;4.50;99.90
18882;DHT22;9573;50.948;11.600;2023-03-08T09:55:51;4.60;99.90
18882;DHT22;9573;50.948;11.600;2023-03-08T09:58:30;4.60;99.90
18882;DHT22;9573;50.948;11.600;2023-03-08T10:01:03;4.60;99.90
18882;DHT22;9573;50.948;11.600;2023-03-08T10:04:12;4.70;99.90
18882;DHT22;9573;50.948;11.600;2023-03-08T10:06:52;4.80;99.90
18882;DHT22;9573;50.948;11.600;2023-03-08T10:09:30;4.90;99.90
18882;DHT22;9573;50.948;11.600;2023-03-08T10:12:06;5.00;99.90
18882;DHT22;9573;50.948;11.600;2023-03-08T10:14:40;5.10;99.90
18882;DHT22;9573;50.948;11.600;2023-03-08T10:17:14;5.20;99.90
18882;DHT22;9573;50.948;11.600;2023-03-08T10:19:47;5.20;99.90
18882;DHT22;9573;50.948;11.600;2023-03-08T10:22:25;5.30;99.90
18882;DHT22;9573;50.948;11.600;2023-03-08T10:24:57;5.40;99.90
18882;DHT22;9573;50.948;11.600;2023-03-08T10:27:31;5.40;99.90
18882;DHT22;9573;50.948;11.600;2023-03-08T10:30:01;5.30;99.90
18882;DHT22;9573;50.948;11.600;2023-03-08T10:32:41;5.20;99.90
18882;DHT22;9573;50.948;11.600;2023-03-08T10:35:09;5.10;99.90
18882;DHT22;9573;50.948;11.600;2023-03-08T10:37:38;5.10;99.90
18882;DHT22;9573;50.948;11.600;2023-03-08T10:40:07;5.10;99.90
18882;DHT22;9573;50.948;11.600;2023-03-08T10:42:42;5.10;99.90
18882;DHT22;9573;50.948;11.600;2023-03-08T10:45:14;5.20;99.90
18882;DHT22;9573;50.948;11.600;2023-03-08T10:47:53;5.20;99.90
18882;DHT22;9573;50.948;11.600;2023-03-08T10:50:23;5.30;99.90
18882;DHT22;9573;50.948;11.600;2023-03-08T10:52:53;5.40;99.90
18882;DHT22;9573;50.948;11.600;2023-03-08T10:55:21;5.50;99.90
18882;DHT22;9573;50.948;11.600;2023-03-08T10:57:52;5.70;99.90
18882;DHT22;9573;50.948;11.600;2023-03-08T11:00:41;5.90;99.90
18882;DHT22;9573;50.948;11.600;2023-03-08T11:03:13;6.10;99.90
18882;DHT22;9573;50.948;11.600;2023-03-08T11:05:51;6.40;99.90
18882;DHT22;9573;50.948;11.600;2023-03-08T11:08:22;6.40;99.90
18882;DHT22;9573;50.948;11.600;2023-03-08T11:11:05;6.50;99.90
18882;DHT22;9573;50.948;11.600;2023-03-08T11:13:36;6.50;99.90
18882;DHT22;9573;50.948;11.600;2023-03-08T11:19:34;6.50;99.90
18882;DHT22;9573;50.948;11.600;2023-03-08T11:22:17;6.30;99.90
18882;DHT22;9573;50.948;11.600;2023-03-08T11:25:01;6.20;99.90
18882;DHT22;9573;50.948;11.600;2023-03-08T11:27:44;6.10;99.90
18882;DHT22;9573;50.948;11.600;2023-03-08T11:30:28;5.40;99.90
18882;DHT22;9573;50.948;11.600;2023-03-08T11:33:23;6.00;99.90
18882;DHT22;9573;50.948;11.600;2023-03-08T11:36:05;6.20;99.90
18882;DHT22;9573;50.948;11.600;2023-03-08T11:38:34;6.20;99.90
18882;DHT22;9573;50.948;11.600;2023-03-08T11:41:15;6.20;99.90
18882;DHT22;9573;50.948;11.600;2023-03-08T11:44:08;6.20;99.90
18882;DHT22;9573;50.948;11.600;2023-03-08T11:46:51;6.20;99.90
18882;DHT22;9573;50.948;11.600;2023-03-08T11:49:47;6.30;99.90
18882;DHT22;9573;50.948;11.600;2023-03-08T11:52:27;6.40;99.90
18882;DHT22;9573;50.948;11.600;2023-03-08T11:55:06;6.50;99.90
18882;DHT22;9573;50.948;11.600;2023-03-08T11:57:50;6.70;99.90
18882;DHT22;9573;50.948;11.600;2023-03-08T12:00:23;6.70;99.90
18882;DHT22;9573;50.948;11.600;2023-03-08T12:02:57;6.80;99.90
18882;DHT22;9573;50.948;11.600;2023-03-08T12:05:28;6.70;99.90
18882;DHT22;9573;50.948;11.600;2023-03-08T12:08:00;6.70;99.90
18882;DHT22;9573;50.948;11.600;2023-03-08T12:10:35;6.70;99.90
18882;DHT22;9573;50.948;11.600;2023-03-08T12:13:16;6.70;99.90
18882;DHT22;9573;50.948;11.600;2023-03-08T12:15:50;6.60;99.90
18882;DHT22;9573;50.948;11.600;2023-03-08T12:18:23;6.70;99.90
18882;DHT22;9573;50.948;11.600;2023-03-08T12:21:00;6.70;99.90
18882;DHT22;9573;50.948;11.600;2023-03-08T12:23:42;6.70;99.90
18882;DHT22;9573;50.948;11.600;2023-03-08T12:26:18;6.70;99.90
18882;DHT22;9573;50.948;11.600;2023-03-08T12:28:51;6.70;99.90
18882;DHT22;9573;50.948;11.600;2023-03-08T12:31:24;6.50;99.90
18882;DHT22;9573;50.948;11.600;2023-03-08T12:33:54;6.40;99.90
18882;DHT22;9573;50.948;11.600;2023-03-08T12:36:35;6.30;99.90
18882;DHT22;9573;50.948;11.600;2023-03-08T12:39:08;6.30;99.90
18882;DHT22;9573;50.948;11.600;2023-03-08T12:41:56;6.20;99.90
18882;DHT22;9573;50.948;11.600;2023-03-08T12:44:28;6.20;99.90
18882;DHT22;9573;50.948;11.600;2023-03-08T12:46:58;6.20;99.90
18882;DHT22;9573;50.948;11.600;2023-03-08T12:49:29;6.30;99.90
18882;DHT22;9573;50.948;11.600;2023-03-08T12:52:01;6.50;99.90
18882;DHT22;9573;50.948;11.600;2023-03-08T12:54:31;6.50;99.90
18882;DHT22;9573;50.948;11.600;2023-03-08T12:57:02;6.70;99.90
18882;DHT22;9573;50.948;11.600;2023-03-08T12:59:40;6.80;99.90
18882;DHT22;9573;50.948;11.600;2023-03-08T13:02:27;6.90;99.90
18882;DHT22;9573;50.948;11.600;2023-03-08T13:05:15;7.10;99.90
18882;DHT22;9573;50.948;11.600;2023-03-08T13:08:01;7.20;99.90
18882;DHT22;9573;50.948;11.600;2023-03-08T13:10:35;7.20;99.90
18882;DHT22;9573;50.948;11.600;2023-03-08T13:13:18;7.20;99.90
18882;DHT22;9573;50.948;11.600;2023-03-08T13:15:49;7.20;99.90
18882;DHT22;9573;50.948;11.600;2023-03-08T13:18:18;7.20;99.90
18882;DHT22;9573;50.948;11.600;2023-03-08T13:21:11;7.20;99.90
18882;DHT22;9573;50.948;11.600;2023-03-08T13:23:48;7.20;99.90
18882;DHT22;9573;50.948;11.600;2023-03-08T13:26:56;7.40;99.90
18882;DHT22;9573;50.948;11.600;2023-03-08T13:29:30;7.60;99.90
18882;DHT22;9573;50.948;11.600;2023-03-08T13:32:04;7.60;99.90
18882;DHT22;9573;50.948;11.600;2023-03-08T13:34:32;7.60;99.90
18882;DHT22;9573;50.948;11.600;2023-03-08T13:37:00;7.60;99.90
18882;DHT22;9573;50.948;11.600;2023-03-08T13:39:29;7.60;99.90
18882;DHT22;9573;50.948;11.600;2023-03-08T13:42:08;7.40;99.90
18882;DHT22;9573;50.948;11.600;2023-03-08T13:44:36;7.30;99.90
18882;DHT22;9573;50.948;11.600;2023-03-08T13:47:21;7.20;99.90
18882;DHT22;9573;50.948;11.600;2023-03-08T13:49:51;7.30;99.90
18882;DHT22;9573;50.948;11.600;2023-03-08T13:52:22;7.40;99.90
18882;DHT22;9573;50.948;11.600;2023-03-08T13:54:56;7.40;99.90
18882;DHT22;9573;50.948;11.600;2023-03-08T13:57:26;7.40;99.90
18882;DHT22;9573;50.948;11.600;2023-03-08T13:59:56;7.30;99.90
18882;DHT22;9573;50.948;11.600;2023-03-08T14:02:28;7.30;99.90
18882;DHT22;9573;50.948;11.600;2023-03-08T14:04:57;7.30;99.90
18882;DHT22;9573;50.948;11.600;2023-03-08T14:07:26;7.10;99.90
18882;DHT22;9573;50.948;11.600;2023-03-08T14:09:55;6.90;99.90
18882;DHT22;9573;50.948;11.600;2023-03-08T14:12:24;6.90;99.90
18882;DHT22;9573;50.948;11.600;2023-03-08T14:14:55;7.00;99.90
18882;DHT22;9573;50.948;11.600;2023-03-08T14:17:26;7.00;99.90
18882;DHT22;9573;50.948;11.600;2023-03-08T14:19:56;7.00;99.90
18882;DHT22;9573;50.948;11.600;2023-03-08T14:22:26;6.90;99.90
18882;DHT22;9573;50.948;11.600;2023-03-08T14:24:56;6.90;99.90
18882;DHT22;9573;50.948;11.600;2023-03-08T14:27:36;6.90;99.90
18882;DHT22;9573;50.948;11.600;2023-03-08T14:30:12;6.90;99.90
18882;DHT22;9573;50.948;11.600;2023-03-08T14:32:58;6.80;99.90
18882;DHT22;9573;50.948;11.600;2023-03-08T14:35:32;6.70;99.90
18882;DHT22;9573;50.948;11.600;2023-03-08T14:38:01;6.60;99.90
18882;DHT22;9573;50.948;11.600;2023-03-08T14:40:32;6.60;99.90
18882;DHT22;9573;50.948;11.600;2023-03-08T14:43:03;6.50;99.90
18882;DHT22;9573;50.948;11.600;2023-03-08T14:45:34;6.50;99.90
18882;DHT22;9573;50.948;11.600;2023-03-08T14:48:22;6.50;99.90
18882;DHT22;9573;50.948;11.600;2023-03-08T14:50:54;6.40;99.90
18882;DHT22;9573;50.948;11.600;2023-03-08T14:53:28;6.40;99.90
18882;DHT22;9573;50.948;11.600;2023-03-08T14:55:57;6.30;99.90
18882;DHT22;9573;50.948;11.600;2023-03-08T14:58:27;6.30;99.90
18882;DHT22;9573;50.948;11.600;2023-03-08T15:00:57;6.40;99.90
18882;DHT22;9573;50.948;11.600;2023-03-08T15:03:29;6.30;99.90
18882;DHT22;9573;50.948;11.600;2023-03-08T15:05:59;6.40;99.90
18882;DHT22;9573;50.948;11.600;2023-03-08T15:08:29;6.50;99.90
18882;DHT22;9573;50.948;11.600;2023-03-08T15:10:57;6.30;99.90
18882;DHT22;9573;50.948;11.600;2023-03-08T15:13:24;6.30;99.90
18882;DHT22;9573;50.948;11.600;2023-03-08T15:15:51;6.20;99.90
18882;DHT22;9573;50.948;11.600;2023-03-08T15:18:18;6.10;99.90
18882;DHT22;9573;50.948;11.600;2023-03-08T15:20:47;6.00;99.90
18882;DHT22;9573;50.948;11.600;2023-03-08T15:23:19;6.00;99.90
18882;DHT22;9573;50.948;11.600;2023-03-08T15:25:47;5.90;99.90
18882;DHT22;9573;50.948;11.600;2023-03-08T15:28:17;5.80;99.90
18882;DHT22;9573;50.948;11.600;2023-03-08T15:30:45;5.70;99.90
18882;DHT22;9573;50.948;11.600;2023-03-08T15:33:12;5.70;99.90
18882;DHT22;9573;50.948;11.600;2023-03-08T15:35:40;5.70;99.90
18882;DHT22;9573;50.948;11.600;2023-03-08T15:38:11;5.60;99.90
18882;DHT22;9573;50.948;11.600;2023-03-08T15:40:39;5.70;99.90
18882;DHT22;9573;50.948;11.600;2023-03-08T15:43:07;5.60;99.90
18882;DHT22;9573;50.948;11.600;2023-03-08T15:45:35;5.70;99.90
18882;DHT22;9573;50.948;11.600;2023-03-08T15:48:04;5.70;99.90
18882;DHT22;9573;50.948;11.600;2023-03-08T15:50:32;5.60;99.90
18882;DHT22;9573;50.948;11.600;2023-03-08T15:53:01;5.60;99.90
18882;DHT22;9573;50.948;11.600;2023-03-08T15:55:29;5.60;99.90
18882;DHT22;9573;50.948;11.600;2023-03-08T15:57:57;5.60;99.90
18882;DHT22;9573;50.948;11.600;2023-03-08T16:00:25;5.60;99.90
18882;DHT22;9573;50.948;11.600;2023-03-08T16:02:52;5.60;99.90
18882;DHT22;9573;50.948;11.600;2023-03-08T16:05:20;5.60;99.90
18882;DHT22;9573;50.948;11.600;2023-03-08T16:07:52;5.60;99.90
18882;DHT22;9573;50.948;11.600;2023-03-08T16:10:20;5.60;99.90